Time;durP1;ratioP1;P1;durP2;ratioP2;P2;SDS_P1;SDS_P2;PMS_P1;PMS_P2;Temp;Humidity;BMP_temperature;BMP_pressure;BME280_temperature;BME280_humidity;BME280_pressure;Samples;Min_cycle;Max_cycle;Signal;HPM_P1;HPM_P2
2022/06/21 00:00:15;;;;;;;3.43;2.20;;;;;;;9.50;100.00;96300.06;5032398;28;20458;-74
2022/06/21 00:02:43;;;;;;;1.53;1.43;;;;;;;9.64;100.00;96308.50;5031157;28;20477;-74
2022/06/21 00:05:39;;;;;;;4.10;2.00;;;;;;;10.04;100.00;96343.19;5030761;28;20441;-73
2022/06/21 00:08:25;;;;;;;2.40;2.20;;;;;;;10.33;100.00;96339.72;5050334;28;20456;-74
2022/06/21 00:10:53;;;;;;;2.40;2.20;;;;;;;10.08;100.00;96344.09;5030855;28;20512;-74
2022/06/21 00:13:24;;;;;;;1.90;1.80;;;;;;;10.33;100.00;96339.72;5013994;28;20559;-74
2022/06/21 00:15:55;;;;;;;1.83;1.73;;;;;;;10.24;100.00;96326.59;5030963;28;21032;-74
2022/06/21 00:18:24;;;;;;;4.30;1.47;;;;;;;10.63;100.00;96351.75;5037283;28;20433;-74
2022/06/21 00:20:52;;;;;;;2.33;1.90;;;;;;;10.35;100.00;96324.31;5022715;28;20914;-74
2022/06/21 00:23:22;;;;;;;2.10;1.90;;;;;;;10.42;100.00;96355.53;5014237;28;20482;-74
2022/06/21 00:25:50;;;;;;;2.53;2.20;;;;;;;10.17;100.00;96344.03;5030613;28;20934;-74
2022/06/21 00:28:18;;;;;;;3.50;2.30;;;;;;;10.16;100.00;96368.91;5030567;28;20434;-74
2022/06/21 00:30:46;;;;;;;4.43;2.37;;;;;;;10.19;100.00;96355.06;5030418;28;20501;-74
2022/06/21 00:33:15;;;;;;;2.00;1.80;;;;;;;9.98;100.00;96332.03;5040354;28;20489;-74
2022/06/21 00:35:45;;;;;;;1.70;1.53;;;;;;;9.68;100.00;96343.72;5021671;28;21010;-74
2022/06/21 00:38:14;;;;;;;8.10;3.13;;;;;;;9.80;100.00;96353.59;5031757;28;20418;-74
2022/06/21 00:40:42;;;;;;;2.10;1.90;;;;;;;9.59;100.00;96322.66;5030461;28;20868;-74
2022/06/21 00:43:16;;;;;;;2.43;2.23;;;;;;;9.57;100.00;96340.66;5030342;28;20488;-74
2022/06/21 00:45:46;;;;;;;7.10;2.50;;;;;;;9.45;100.00;96320.25;5032859;28;20477;-74
2022/06/21 00:48:18;;;;;;;4.77;2.57;;;;;;;9.44;100.00;96355.63;5040320;28;20496;-74
2022/06/21 00:50:49;;;;;;;2.27;2.07;;;;;;;8.43;100.00;96311.59;5031423;28;20485;-74
2022/06/21 00:53:18;;;;;;;2.50;2.30;;;;;;;8.78;100.00;96349.97;5030026;28;20430;-74
2022/06/21 00:55:51;;;;;;;3.57;2.33;;;;;;;9.10;100.00;96355.78;5029675;28;20466;-74
2022/06/21 00:58:21;;;;;;;3.33;2.10;;;;;;;9.11;100.00;96352.06;5029820;28;20438;-74
2022/06/21 01:00:59;;;;;;;3.63;2.87;;;;;;;8.92;100.00;96343.72;5044477;28;20473;-74
2022/06/21 01:03:31;;;;;;;2.23;1.90;;;;;;;8.58;100.00;96316.38;5029825;28;20440;-74
2022/06/21 01:06:03;;;;;;;3.40;2.27;;;;;;;8.80;100.00;96347.78;5013285;28;20496;-74
2022/06/21 01:08:34;;;;;;;3.73;2.37;;;;;;;9.22;100.00;96345.34;5045815;28;20453;-74
2022/06/21 01:11:06;;;;;;;1.93;1.80;;;;;;;8.98;100.00;96353.03;5050910;28;20508;-74
2022/06/21 01:13:38;;;;;;;2.13;2.03;;;;;;;8.81;100.00;96333.53;5031888;28;20442;-74
2022/06/21 01:16:06;;;;;;;3.40;2.30;;;;;;;8.49;100.00;96326.13;5013237;28;20462;-74
2022/06/21 01:18:34;;;;;;;4.37;2.87;;;;;;;8.14;100.00;96344.56;5034768;28;20468;-74
2022/06/21 01:21:02;;;;;;;2.70;2.50;;;;;;;8.51;100.00;96343.19;5049412;28;20989;-74
2022/06/21 01:24:07;;;;;;;3.23;2.57;;;;;;;8.65;100.00;96339.59;5030330;28;20442;-74
2022/06/21 01:26:37;;;;;;;4.50;2.50;;;;;;;8.87;100.00;96344.69;5027015;28;20449;-74
2022/06/21 01:29:09;;;;;;;2.37;2.27;;;;;;;8.46;100.00;96322.28;5026462;28;20478;-74
2022/06/21 01:31:36;;;;;;;7.40;2.70;;;;;;;8.48;100.00;96324.59;5029618;28;20450;-74
2022/06/21 01:34:03;;;;;;;2.90;2.57;;;;;;;8.56;100.00;96321.19;5013211;28;20819;-74
2022/06/21 01:36:33;;;;;;;2.73;2.53;;;;;;;8.37;100.00;96342.56;5029378;28;20557;-74
2022/06/21 01:39:09;;;;;;;5.17;2.47;;;;;;;8.13;100.00;96306.13;5042820;28;20499;-74
2022/06/21 01:41:43;;;;;;;2.70;2.50;;;;;;;8.29;100.00;96330.16;5030846;28;20560;-74
2022/06/21 01:44:16;;;;;;;3.60;1.93;;;;;;;8.42;100.00;96345.06;5029383;28;20465;-74
2022/06/21 01:46:43;;;;;;;3.90;2.87;;;;;;;8.53;100.00;96351.53;5029066;28;20430;-74
2022/06/21 01:49:14;;;;;;;2.70;2.50;;;;;;;8.37;100.00;96328.63;5029013;28;20490;-74
2022/06/21 01:51:51;;;;;;;2.20;2.00;;;;;;;8.14;100.00;96310.31;5029608;28;20427;-74
2022/06/21 01:54:21;;;;;;;2.90;2.53;;;;;;;8.34;100.00;96308.97;5015971;28;20446;-74
2022/06/21 01:56:49;;;;;;;2.73;2.53;;;;;;;8.25;100.00;96332.63;5029051;28;20469;-74
2022/06/21 01:59:27;;;;;;;4.50;2.23;;;;;;;7.85;100.00;96284.63;5029205;28;20450;-74
2022/06/21 02:01:53;;;;;;;3.13;2.33;;;;;;;8.35;100.00;96344.75;5029182;28;20541;-74
2022/06/21 02:04:24;;;;;;;3.60;2.53;;;;;;;8.02;100.00;96323.34;5038573;28;21202;-74
2022/06/21 02:06:54;;;;;;;3.50;2.80;;;;;;;7.98;100.00;96325.03;5046751;28;20411;-74
2022/06/21 02:09:24;;;;;;;6.13;2.50;;;;;;;8.09;100.00;96317.59;5029049;28;20464;-74
2022/06/21 02:12:03;;;;;;;2.80;2.60;;;;;;;8.50;100.00;96335.59;5028940;28;20487;-74
2022/06/21 02:14:34;;;;;;;2.73;2.53;;;;;;;8.30;100.00;96343.03;5029119;28;20438;-74
2022/06/21 02:17:01;;;;;;;2.43;2.23;;;;;;;8.47;100.00;96354.66;5000198;28;21044;-74
2022/06/21 02:19:35;;;;;;;2.70;2.17;;;;;;;8.41;100.00;96319.00;5029043;28;20978;-74
2022/06/21 02:22:02;;;;;;;2.80;2.20;;;;;;;8.28;100.00;96328.63;5029084;28;20477;-74
2022/06/21 02:24:30;;;;;;;4.03;2.60;;;;;;;8.42;100.00;96331.13;5028861;28;20442;-74
2022/06/21 02:26:59;;;;;;;3.70;2.57;;;;;;;8.10;100.00;96319.94;5030470;28;20493;-74
2022/06/21 02:29:27;;;;;;;3.20;3.00;;;;;;;7.93;100.00;96309.41;5028657;28;20469;-74
2022/06/21 02:31:54;;;;;;;2.93;2.73;;;;;;;8.36;100.00;96342.88;5029408;28;20792;-74
2022/06/21 02:34:29;;;;;;;4.37;3.23;;;;;;;8.14;100.00;96336.66;5032845;28;20440;-74
2022/06/21 02:36:59;;;;;;;2.60;2.40;;;;;;;8.30;100.00;96339.63;5041557;28;20828;-74
2022/06/21 02:39:28;;;;;;;3.17;2.90;;;;;;;8.08;100.00;96334.50;5016052;28;20491;-74
2022/06/21 02:42:09;;;;;;;2.77;2.50;;;;;;;7.59;100.00;96303.00;5032355;28;20942;-74
2022/06/21 02:44:43;;;;;;;2.70;2.50;;;;;;;7.87;100.00;96329.03;5032521;28;20856;-74
2022/06/21 02:47:23;;;;;;;2.93;2.73;;;;;;;8.04;100.00;96325.69;5032389;28;20512;-74
2022/06/21 02:49:58;;;;;;;2.53;2.33;;;;;;;7.72;100.00;96332.91;5032276;28;20465;-74
2022/06/21 02:52:30;;;;;;;3.80;3.47;;;;;;;7.79;100.00;96308.78;5036483;28;20506;-74
2022/06/21 02:55:29;;;;;;;4.13;3.00;;;;;;;8.00;100.00;96334.16;5024093;28;20438;-74
2022/06/21 02:58:23;;;;;;;3.10;2.90;;;;;;;7.92;100.00;96302.59;5022182;28;20473;-74
2022/06/21 03:00:51;;;;;;;2.80;2.43;;;;;;;8.06;100.00;96320.88;5015905;28;21061;-74
2022/06/21 03:03:25;;;;;;;2.80;2.60;;;;;;;7.92;100.00;96337.59;5029242;28;20441;-74
2022/06/21 03:05:59;;;;;;;2.70;2.50;;;;;;;7.80;100.00;96319.00;5032104;28;20426;-74
2022/06/21 03:08:30;;;;;;;2.73;2.53;;;;;;;7.51;100.00;96316.94;5032219;28;20468;-74
2022/06/21 03:10:57;;;;;;;2.80;2.60;;;;;;;7.44;100.00;96319.22;5032000;28;20501;-74
2022/06/21 03:13:31;;;;;;;3.13;2.80;;;;;;;7.62;100.00;96323.47;5031936;28;20885;-74
2022/06/21 03:16:10;;;;;;;4.63;2.97;;;;;;;7.51;100.00;96324.06;5032022;28;20553;-74
2022/06/21 03:18:44;;;;;;;2.93;2.53;;;;;;;7.24;100.00;96244.31;5020475;28;20422;-74
2022/06/21 03:21:14;;;;;;;2.87;2.57;;;;;;;7.36;100.00;96291.84;5033371;28;20577;-74
2022/06/21 03:23:45;;;;;;;3.63;3.43;;;;;;;7.26;100.00;96289.47;5015640;28;20418;-74
2022/06/21 03:26:13;;;;;;;3.30;3.00;;;;;;;7.44;100.00;96310.56;5031884;28;20484;-74
2022/06/21 03:28:45;;;;;;;4.47;3.17;;;;;;;7.60;100.00;96288.00;5031787;28;20450;-74
2022/06/21 03:31:12;;;;;;;8.13;3.40;;;;;;;7.74;100.00;96320.19;5028786;28;20466;-74
2022/06/21 03:33:43;;;;;;;6.70;3.93;;;;;;;7.70;100.00;96325.31;5031593;28;20926;-74
2022/06/21 03:36:14;;;;;;;6.83;4.73;;;;;;;7.88;100.00;96335.84;5050842;28;20550;-74
2022/06/21 03:38:45;;;;;;;10.23;6.20;;;;;;;8.07;100.00;96332.94;5052652;28;20512;-74
2022/06/21 03:44:25;;;;;;;5.33;4.20;;;;;;;7.54;100.00;96299.75;5015335;28;20434;-74
2022/06/21 03:46:55;;;;;;;9.67;5.23;;;;;;;7.76;100.00;96309.41;5031442;28;20838;-74
2022/06/21 03:49:39;;;;;;;6.73;4.90;;;;;;;8.08;100.00;96311.56;5051313;28;20483;-74
2022/06/21 03:52:41;;;;;;;7.20;4.60;;;;;;;8.18;100.00;96334.19;5019126;28;20473;-74
2022/06/21 03:55:14;;;;;;;7.17;4.60;;;;;;;7.79;100.00;96282.47;5031161;28;20540;-74
2022/06/21 03:57:47;;;;;;;5.67;4.70;;;;;;;8.11;100.00;96321.47;5019385;28;20458;-74
2022/06/21 04:00:15;;;;;;;3.47;2.63;;;;;;;7.90;100.00;96294.22;5033071;28;20537;-74
2022/06/21 04:02:48;;;;;;;3.27;2.40;;;;;;;7.78;100.00;96320.38;5051075;28;20863;-73
2022/06/21 04:05:25;;;;;;;5.03;2.60;;;;;;;7.66;100.00;96299.94;5034978;28;20464;-73
2022/06/21 04:08:08;;;;;;;3.50;3.00;;;;;;;7.90;100.00;96325.81;5051154;28;20436;-74
2022/06/21 04:10:47;;;;;;;2.77;2.57;;;;;;;8.32;100.00;96286.63;5034278;28;20973;-73
2022/06/21 04:13:32;;;;;;;3.10;2.90;;;;;;;8.07;100.00;96304.00;5034190;28;20475;-73
2022/06/21 04:16:17;;;;;;;2.70;2.50;;;;;;;8.18;100.00;96318.41;5039933;28;20473;-73
2022/06/21 04:19:20;;;;;;;3.40;3.10;;;;;;;8.80;100.00;96325.91;5030877;28;21052;-73
2022/06/21 04:22:00;;;;;;;3.70;3.40;;;;;;;8.83;100.00;96331.34;5024203;28;20469;-73
2022/06/21 04:24:35;;;;;;;3.50;3.20;;;;;;;8.88;100.00;96318.00;5014387;28;20442;-73
2022/06/21 04:27:23;;;;;;;3.93;3.60;;;;;;;9.02;100.00;96338.88;5023458;28;20523;-73
2022/06/21 04:30:00;;;;;;;3.47;3.13;;;;;;;8.82;100.00;96305.31;5027606;28;20527;-73
2022/06/21 04:32:48;;;;;;;3.53;3.13;;;;;;;9.41;100.00;96337.81;5030573;28;20473;-73
2022/06/21 04:35:21;;;;;;;3.97;3.67;;;;;;;9.22;100.00;96329.53;5030577;28;20462;-73
2022/06/21 04:38:17;;;;;;;4.30;3.20;;;;;;;9.82;100.00;96351.41;5030611;28;20462;-73
2022/06/21 04:40:54;;;;;;;3.73;3.43;;;;;;;10.18;100.00;96335.00;5007668;28;20903;-73
2022/06/21 04:43:24;;;;;;;3.00;2.70;;;;;;;10.13;100.00;96333.31;5030583;28;20426;-73
2022/06/21 04:46:11;;;;;;;6.50;3.83;;;;;;;10.39;100.00;96354.28;5030753;28;20914;-73
2022/06/21 04:48:57;;;;;;;5.20;3.70;;;;;;;10.52;100.00;96358.53;5030466;28;20484;-73
2022/06/21 04:51:33;;;;;;;6.07;3.60;;;;;;;10.59;100.00;96337.63;5030495;28;20466;-73
2022/06/21 04:54:20;;;;;;;5.13;3.30;;;;;;;10.85;100.00;96350.59;5031852;28;20422;-74
2022/06/21 04:57:11;;;;;;;6.80;3.10;;;;;;;10.13;100.00;96345.75;5030476;28;20473;-73
2022/06/21 04:59:38;;;;;;;6.90;4.10;;;;;;;10.60;100.00;96365.63;5030389;28;20446;-73
2022/06/21 05:02:13;;;;;;;5.57;3.20;;;;;;;10.85;100.00;96366.47;5034375;28;20441;-74
2022/06/21 05:04:42;;;;;;;3.57;3.00;;;;;;;10.80;100.00;96357.97;5037737;28;20823;-73
2022/06/21 05:07:18;;;;;;;3.83;3.10;;;;;;;10.80;100.00;96344.75;5037474;28;20520;-73
2022/06/21 05:09:48;;;;;;;7.93;3.53;;;;;;;10.41;100.00;96353.97;5036175;28;20485;-73
2022/06/21 05:12:23;;;;;;;2.90;2.70;;;;;;;10.51;100.00;96362.28;5013618;28;20446;-73
2022/06/21 05:14:59;;;;;;;3.43;3.13;;;;;;;10.64;100.00;96328.72;5016790;28;20922;-73
2022/06/21 05:17:26;;;;;;;4.23;3.70;;;;;;;11.12;100.00;96341.28;5030029;28;20544;-73
2022/06/21 05:19:58;;;;;;;3.03;2.83;;;;;;;11.05;100.00;96325.19;5034282;28;20846;-73
2022/06/21 05:22:30;;;;;;;5.30;3.10;;;;;;;11.83;100.00;96324.97;5037864;28;20457;-73
2022/06/21 05:24:59;;;;;;;3.50;3.20;;;;;;;12.08;100.00;96356.75;5019050;28;20542;-73
2022/06/21 05:27:44;;;;;;;3.33;3.03;;;;;;;12.16;100.00;96353.19;5020938;28;20481;-74
2022/06/21 05:30:15;;;;;;;2.90;2.70;;;;;;;11.98;100.00;96346.59;5022130;28;21054;-73
2022/06/21 05:32:53;;;;;;;4.30;3.70;;;;;;;11.79;100.00;96324.13;5029547;28;20427;-73
2022/06/21 05:35:24;;;;;;;3.23;2.93;;;;;;;12.41;100.00;96336.09;5023985;28;20794;-73
2022/06/21 05:37:57;;;;;;;4.70;3.77;;;;;;;12.90;100.00;96353.69;5032829;28;20500;-73
2022/06/21 05:40:45;;;;;;;3.03;2.83;;;;;;;12.72;100.00;96348.69;5036936;28;20533;-73
2022/06/21 05:43:16;;;;;;;5.70;4.10;;;;;;;12.60;100.00;96332.06;5018061;28;20490;-73
2022/06/21 05:45:50;;;;;;;4.00;3.70;;;;;;;12.84;100.00;96323.22;5042732;28;20434;-73
2022/06/21 05:48:24;;;;;;;4.43;3.87;;;;;;;12.83;100.00;96350.84;5029213;28;20919;-73
2022/06/21 05:50:51;;;;;;;6.37;4.73;;;;;;;12.85;100.00;96328.16;5046883;28;20511;-73
2022/06/21 05:53:33;;;;;;;4.70;3.47;;;;;;;13.10;100.00;96347.38;5049093;28;20442;-73
2022/06/21 05:56:06;;;;;;;4.40;3.27;;;;;;;13.30;100.00;96327.78;5016062;28;20438;-73
2022/06/21 05:58:38;;;;;;;4.57;3.33;;;;;;;13.51;100.00;96343.47;5030529;28;20454;-73
2022/06/21 06:01:26;;;;;;;5.67;5.00;;;;;;;12.77;100.00;96264.66;5029246;28;20476;-73
2022/06/21 06:04:00;;;;;;;3.43;3.13;;;;;;;13.45;100.00;96341.41;5030353;28;20465;-73
2022/06/21 06:06:34;;;;;;;3.37;3.07;;;;;;;13.27;100.00;96323.16;5029169;28;20956;-73
2022/06/21 06:09:16;;;;;;;5.33;2.97;;;;;;;14.10;100.00;96344.38;5029256;28;20438;-73
2022/06/21 06:11:59;;;;;;;4.07;3.23;;;;;;;13.99;100.00;96324.75;5030690;28;20410;-73
2022/06/21 06:14:49;;;;;;;4.20;3.70;;;;;;;14.21;100.00;96324.09;5043584;28;20437;-73
2022/06/21 06:17:16;;;;;;;3.13;2.40;;;;;;;14.59;100.00;96343.88;5045406;28;20462;-73
2022/06/21 06:19:52;;;;;;;5.23;3.27;;;;;;;14.64;100.00;96336.38;5016418;28;20462;-73
2022/06/21 06:22:31;;;;;;;4.07;3.20;;;;;;;14.82;100.00;96335.91;5033003;28;20410;-73
2022/06/21 06:25:05;;;;;;;3.27;3.00;;;;;;;15.11;99.22;96343.31;5032710;28;20432;-73
2022/06/21 06:27:45;;;;;;;9.77;3.30;;;;;;;14.57;100.00;96333.59;5032957;28;20521;-73
2022/06/21 06:30:24;;;;;;;3.53;2.73;;;;;;;14.83;100.00;96327.59;5049410;28;20911;-73
2022/06/21 06:33:17;;;;;;;4.37;3.20;;;;;;;15.10;99.33;96331.09;5035494;28;20459;-73
2022/06/21 06:35:45;;;;;;;4.50;2.53;;;;;;;15.59;96.43;96317.03;4999331;28;20779;-73
2022/06/21 06:38:14;;;;;;;2.60;2.40;;;;;;;16.11;93.22;96326.91;5033944;28;20501;-73
2022/06/21 06:40:54;;;;;;;3.97;2.40;;;;;;;16.41;91.86;96350.91;5016049;28;20531;-73
2022/06/21 06:43:30;;;;;;;4.37;2.77;;;;;;;15.49;94.54;96347.72;5016261;28;20504;-73
2022/06/21 06:45:58;;;;;;;2.97;2.67;;;;;;;15.40;95.70;96320.56;5021020;28;20436;-73
2022/06/21 06:48:30;;;;;;;4.90;3.23;;;;;;;16.00;94.35;96335.91;5040650;28;20997;-73
2022/06/21 06:51:26;;;;;;;3.50;2.80;;;;;;;16.27;90.75;96329.41;5032251;28;21026;-73
2022/06/21 06:53:56;;;;;;;3.17;2.80;;;;;;;16.57;88.63;96334.72;5030107;28;21017;-73
2022/06/21 06:56:29;;;;;;;3.20;2.90;;;;;;;17.18;88.27;96351.38;5032245;28;20422;-73
2022/06/21 06:59:08;;;;;;;4.00;3.10;;;;;;;17.16;85.91;96345.66;5045529;28;20418;-73
2022/06/21 07:01:57;;;;;;;3.83;3.00;;;;;;;17.11;83.44;96333.41;5016021;28;21095;-73
2022/06/21 07:04:32;;;;;;;4.37;2.70;;;;;;;17.10;82.56;96355.91;5041406;28;20444;-73
2022/06/21 07:07:09;;;;;;;3.20;2.90;;;;;;;16.65;81.49;96346.25;5039021;28;20435;-73
2022/06/21 07:09:47;;;;;;;3.07;2.87;;;;;;;16.93;77.83;96365.25;5039590;28;20461;-73
2022/06/21 07:12:20;;;;;;;2.20;2.10;;;;;;;16.53;79.23;96368.59;5019657;28;20465;-73
2022/06/21 07:14:49;;;;;;;3.70;2.53;;;;;;;16.74;79.24;96366.22;5035034;28;20427;-73
2022/06/21 07:17:32;;;;;;;3.27;2.50;;;;;;;16.94;74.75;96376.72;5043456;28;20548;-73
2022/06/21 07:20:15;;;;;;;3.47;2.20;;;;;;;17.34;69.71;96376.72;5029949;28;20527;-73
2022/06/21 07:22:43;;;;;;;4.90;2.67;;;;;;;17.19;68.17;96374.28;5043405;28;20940;-73
2022/06/21 07:25:24;;;;;;;4.73;2.10;;;;;;;16.84;67.70;96386.94;5040492;28;20498;-73
2022/06/21 07:27:59;;;;;;;2.57;2.37;;;;;;;16.38;69.18;96374.91;5038326;28;20460;-73
2022/06/21 07:30:31;;;;;;;5.00;3.23;;;;;;;16.90;69.80;96382.03;5041773;28;20854;-73
2022/06/21 07:33:05;;;;;;;3.80;2.23;;;;;;;16.75;68.26;96394.47;5028851;28;20465;-74
2022/06/21 07:35:39;;;;;;;3.10;2.73;;;;;;;17.13;68.21;96393.34;5027808;28;20430;-73
2022/06/21 07:38:14;;;;;;;7.40;2.70;;;;;;;17.34;69.05;96406.13;5028491;28;20510;-73
2022/06/21 07:40:41;;;;;;;6.53;3.20;;;;;;;17.67;66.42;96410.63;5045243;28;20453;-73
2022/06/21 07:43:14;;;;;;;3.07;2.30;;;;;;;17.32;67.63;96405.72;5039640;28;20517;-73
2022/06/21 07:45:52;;;;;;;4.73;2.33;;;;;;;17.65;65.11;96354.09;5038394;28;20492;-73
2022/06/21 07:48:38;;;;;;;3.30;2.30;;;;;;;17.83;65.25;96402.38;5041025;28;21015;-73
2022/06/21 07:51:11;;;;;;;4.03;3.63;;;;;;;17.28;66.58;96396.91;5038615;28;20503;-73
2022/06/21 07:53:48;;;;;;;6.97;2.80;;;;;;;17.15;66.73;96374.28;5021584;28;20430;-73
2022/06/21 07:56:20;;;;;;;4.40;2.90;;;;;;;18.41;63.82;96403.50;5025463;28;21025;-73
2022/06/21 07:58:50;;;;;;;3.00;2.23;;;;;;;18.61;61.60;96360.00;5031557;28;20466;-73
2022/06/21 08:07:23;;;;;;;5.23;2.90;;;;;;;18.90;60.68;96365.47;5027126;28;20525;-74
2022/06/21 08:09:53;;;;;;;2.03;1.83;;;;;;;19.40;60.34;96395.03;5037768;28;20446;-73
2022/06/21 08:12:20;;;;;;;3.20;2.37;;;;;;;19.05;60.30;96371.63;5052462;28;20448;-73
2022/06/21 08:14:48;;;;;;;2.73;2.20;;;;;;;18.51;60.27;96366.06;5037929;28;20443;-73
2022/06/21 08:17:58;;;;;;;2.30;2.10;;;;;;;18.33;58.53;96383.19;5043298;28;20539;-73
2022/06/21 08:20:41;;;;;;;2.80;2.60;;;;;;;18.33;58.40;96373.25;4979450;28;20475;-74
2022/06/21 08:23:16;;;;;;;2.53;2.10;;;;;;;18.11;57.89;96372.38;5040770;28;20512;-73
2022/06/21 08:25:48;;;;;;;2.97;1.77;;;;;;;19.05;55.90;96395.72;5031156;28;20457;-73
2022/06/21 08:28:21;;;;;;;1.80;1.70;;;;;;;19.02;55.85;96378.50;5037150;28;20499;-74
2022/06/21 08:30:55;;;;;;;6.43;1.90;;;;;;;18.99;56.52;96405.31;5037317;28;20597;-73
2022/06/21 08:33:53;;;;;;;2.00;1.90;;;;;;;19.67;56.23;96403.53;5031084;28;20432;-73
2022/06/21 08:36:40;;;;;;;3.20;2.80;;;;;;;18.89;56.76;96398.75;5036335;28;20441;-73
2022/06/21 08:39:09;;;;;;;2.03;1.93;;;;;;;18.73;56.69;96392.97;5050761;28;20847;-74
2022/06/21 08:41:52;;;;;;;5.33;2.50;;;;;;;18.65;57.06;96394.06;5034787;28;20445;-75
2022/06/21 08:44:43;;;;;;;2.80;2.00;;;;;;;19.13;56.81;96390.03;5051922;28;20977;-74
2022/06/21 08:47:43;;;;;;;3.03;2.43;;;;;;;20.65;55.08;96395.69;5034110;28;20956;-74
2022/06/21 08:50:30;;;;;;;2.00;1.73;;;;;;;20.30;54.03;96391.94;5034077;28;20468;-74
2022/06/21 08:53:45;;;;;;;4.63;2.70;;;;;;;18.87;55.97;96391.09;5030462;28;20507;-74
2022/06/21 08:56:21;;;;;;;3.80;1.90;;;;;;;19.88;53.96;96375.91;4989343;28;20505;-74
2022/06/21 08:59:23;;;;;;;2.00;1.80;;;;;;;21.41;51.82;96367.28;5013009;28;20532;-74
2022/06/21 09:01:53;;;;;;;1.87;1.50;;;;;;;21.16;50.57;96384.31;5041327;28;20437;-74
2022/06/21 09:04:38;;;;;;;4.13;2.00;;;;;;;19.99;50.43;96384.69;5050649;28;20857;-74
2022/06/21 09:07:31;;;;;;;4.90;2.17;;;;;;;19.57;51.38;96378.22;5033958;28;20447;-74
2022/06/21 09:10:10;;;;;;;3.60;1.57;;;;;;;20.29;51.52;96389.63;5050179;28;20481;-74
2022/06/21 09:12:47;;;;;;;2.73;2.27;;;;;;;19.52;52.28;96381.25;5049741;28;20457;-74
2022/06/21 09:15:57;;;;;;;2.50;2.10;;;;;;;19.21;53.25;96382.75;5033449;28;20437;-74
2022/06/21 09:19:05;;;;;;;3.70;1.73;;;;;;;19.39;52.48;96380.09;5015159;28;21182;-74
2022/06/21 09:21:45;;;;;;;2.50;1.80;;;;;;;20.54;51.85;96382.28;5030924;28;20757;-74
2022/06/21 09:24:36;;;;;;;2.83;2.40;;;;;;;19.95;52.93;96365.94;5036759;28;20446;-74
2022/06/21 09:27:19;;;;;;;3.30;2.00;;;;;;;20.08;52.73;96361.69;5029849;28;20482;-74
2022/06/21 09:29:55;;;;;;;3.33;1.93;;;;;;;20.67;51.14;96366.50;5025520;28;21005;-74
2022/06/21 09:32:40;;;;;;;2.47;2.03;;;;;;;20.38;49.71;96368.50;5029753;28;20477;-74
2022/06/21 09:35:31;;;;;;;2.00;1.90;;;;;;;20.00;51.08;96354.03;5030817;28;20453;-74
2022/06/21 09:38:21;;;;;;;2.30;2.10;;;;;;;19.63;52.57;96370.53;5030929;28;20454;-74
2022/06/21 09:41:04;;;;;;;3.70;2.30;;;;;;;19.29;52.03;96375.50;5029688;28;20462;-74
2022/06/21 09:44:00;;;;;;;2.10;1.90;;;;;;;20.56;49.60;96341.59;5029771;28;20470;-74
2022/06/21 09:46:35;;;;;;;1.93;1.83;;;;;;;20.91;50.02;96354.88;5029629;28;20450;-74
2022/06/21 09:49:13;;;;;;;2.20;1.53;;;;;;;20.38;48.91;96320.16;5030428;28;20434;-75
2022/06/21 09:51:52;;;;;;;2.73;1.73;;;;;;;21.11;48.74;96344.41;5013631;28;20442;-75
2022/06/21 09:54:39;;;;;;;2.97;1.83;;;;;;;21.15;47.46;96342.44;5030173;28;20454;-75
2022/06/21 09:57:25;;;;;;;1.97;1.77;;;;;;;21.53;47.69;96321.81;5029761;28;20441;-75
2022/06/21 10:00:05;;;;;;;4.90;2.50;;;;;;;21.77;46.69;96313.91;5029570;28;20508;-75
2022/06/21 10:03:08;;;;;;;4.97;2.17;;;;;;;21.62;47.25;96323.25;5031017;28;20414;-75
2022/06/21 10:06:00;;;;;;;2.33;1.70;;;;;;;22.60;46.77;96328.78;5013151;28;20433;-75
2022/06/21 10:08:41;;;;;;;1.93;1.67;;;;;;;21.96;47.16;96310.63;5029306;28;20807;-75
2022/06/21 10:11:14;;;;;;;2.47;1.73;;;;;;;22.22;45.58;96338.88;5029391;28;20455;-75
2022/06/21 10:14:14;;;;;;;2.60;2.03;;;;;;;21.16;47.21;96329.75;5012884;28;20485;-75
2022/06/21 10:16:58;;;;;;;3.53;2.10;;;;;;;20.48;47.28;96324.75;5029357;28;20446;-75
2022/06/21 10:19:39;;;;;;;4.20;1.80;;;;;;;21.96;45.88;96326.03;5029307;28;21253;-74
2022/06/21 10:22:29;;;;;;;2.50;2.30;;;;;;;21.13;45.53;96314.41;5030692;28;20433;-75
2022/06/21 10:25:44;;;;;;;5.70;2.00;;;;;;;21.25;45.37;96295.16;5029283;28;20434;-75
2022/06/21 10:28:46;;;;;;;2.53;1.70;;;;;;;21.21;45.76;96289.75;5000572;28;20502;-74
2022/06/21 10:31:41;;;;;;;2.20;2.00;;;;;;;22.22;44.79;96292.31;5023325;28;20501;-75
2022/06/21 10:34:13;;;;;;;2.73;1.70;;;;;;;22.43;42.82;96284.72;5029282;28;20430;-75
2022/06/21 10:36:55;;;;;;;3.07;1.50;;;;;;;22.25;42.42;96294.94;5029077;28;20541;-75
2022/06/21 10:39:37;;;;;;;2.13;1.93;;;;;;;22.98;42.98;96307.91;5012541;28;20482;-75
2022/06/21 10:44:58;;;;;;;2.27;1.60;;;;;;;23.02;41.53;96309.78;5028977;28;20438;-75
2022/06/21 10:47:52;;;;;;;2.33;1.70;;;;;;;22.70;41.82;96265.91;5012464;28;20438;-74
2022/06/21 10:50:34;;;;;;;2.90;2.20;;;;;;;23.08;41.89;96310.81;5012623;28;20512;-75
2022/06/21 10:53:35;;;;;;;1.70;1.60;;;;;;;22.94;41.67;96252.47;5028981;28;20426;-74
2022/06/21 11:03:12;;;;;;;7.00;1.80;;;;;;;24.11;42.05;96290.97;5032326;28;21064;-75
2022/06/21 11:06:06;;;;;;;4.40;2.13;;;;;;;23.71;40.77;96281.31;5032548;28;20442;-75
2022/06/21 11:08:42;;;;;;;4.80;2.03;;;;;;;23.52;41.13;96283.53;5032353;28;20427;-74
2022/06/21 11:11:27;;;;;;;3.90;2.33;;;;;;;23.51;41.53;96279.31;5032493;28;20519;-74
2022/06/21 11:13:57;;;;;;;2.60;1.90;;;;;;;23.59;41.57;96275.31;5032235;28;21020;-74
2022/06/21 11:16:42;;;;;;;2.50;1.63;;;;;;;24.01;40.22;96256.81;5032278;28;20442;-75
2022/06/21 11:19:16;;;;;;;2.80;2.17;;;;;;;23.82;39.78;96244.06;5032200;28;21007;-75
2022/06/21 11:22:03;;;;;;;2.40;2.20;;;;;;;23.81;39.63;96275.72;5032053;28;20484;-75
2022/06/21 11:24:42;;;;;;;2.60;1.80;;;;;;;23.79;39.12;96277.31;5032029;28;20492;-75
2022/06/21 11:27:46;;;;;;;2.03;1.60;;;;;;;24.20;38.75;96268.81;5033528;28;20418;-75
2022/06/21 11:30:17;;;;;;;4.60;1.80;;;;;;;24.75;37.68;96275.41;5027838;28;20453;-75
2022/06/21 11:32:59;;;;;;;2.97;1.70;;;;;;;25.04;37.55;96276.31;5031798;28;20521;-75
2022/06/21 11:35:41;;;;;;;2.70;2.00;;;;;;;25.40;36.27;96274.69;5033539;28;20441;-75
2022/06/21 11:38:16;;;;;;;5.70;1.73;;;;;;;25.12;36.25;96239.03;5033565;28;20523;-75
2022/06/21 11:40:59;;;;;;;2.37;1.50;;;;;;;25.38;35.61;96274.38;5031904;28;20457;-74
2022/06/21 11:43:49;;;;;;;2.60;1.83;;;;;;;25.11;36.47;96278.09;5032284;28;20427;-75
2022/06/21 11:46:35;;;;;;;1.67;1.57;;;;;;;24.84;35.93;96272.09;5015850;28;20442;-75
2022/06/21 11:49:18;;;;;;;2.17;2.07;;;;;;;24.61;36.46;96265.66;5015563;28;20934;-75
2022/06/21 11:52:07;;;;;;;2.80;1.80;;;;;;;25.25;36.49;96258.03;5032266;28;20441;-75
2022/06/21 11:54:43;;;;;;;3.07;1.57;;;;;;;25.47;34.55;96218.41;5015733;28;20438;-75
2022/06/21 11:57:30;;;;;;;2.23;1.53;;;;;;;25.89;34.94;96262.59;5031857;28;20492;-74
2022/06/21 12:00:05;;;;;;;1.73;1.40;;;;;;;25.21;34.41;96247.28;5031783;28;21031;-74
2022/06/21 12:02:42;;;;;;;1.80;1.70;;;;;;;25.12;34.40;96255.25;5031869;28;20414;-75
2022/06/21 12:05:27;;;;;;;2.50;2.30;;;;;;;26.09;34.19;96242.72;5031636;28;20789;-74
2022/06/21 12:08:13;;;;;;;2.93;2.10;;;;;;;26.47;33.76;96251.72;5015393;28;20462;-74
2022/06/21 12:10:49;;;;;;;2.63;2.00;;;;;;;26.66;33.23;96224.81;5030937;28;20450;-74
2022/06/21 12:13:29;;;;;;;2.20;1.80;;;;;;;25.31;34.40;96240.09;5030956;28;20507;-74
2022/06/21 12:16:09;;;;;;;3.60;1.93;;;;;;;24.91;35.20;96236.78;5031275;28;20473;-74
2022/06/21 12:18:37;;;;;;;1.63;1.53;;;;;;;25.35;35.56;96214.44;5031495;28;20524;-74
2022/06/21 12:21:11;;;;;;;2.20;2.00;;;;;;;25.14;35.78;96228.53;5032468;28;20446;-74
2022/06/21 12:23:44;;;;;;;3.20;1.90;;;;;;;24.64;35.45;96234.31;5031374;28;20484;-74
2022/06/21 12:26:14;;;;;;;2.90;1.60;;;;;;;25.04;35.29;96224.88;5032338;28;20925;-74
2022/06/21 12:28:42;;;;;;;1.90;1.70;;;;;;;26.02;34.68;96232.81;5031490;28;20465;-74
2022/06/21 12:31:14;;;;;;;1.57;1.47;;;;;;;26.09;33.76;96210.19;5030764;28;20513;-74
2022/06/21 12:33:46;;;;;;;7.40;1.23;;;;;;;26.03;33.82;96209.19;5030972;28;20465;-74
2022/06/21 12:36:25;;;;;;;2.40;2.00;;;;;;;26.72;32.35;96209.50;5031218;28;20438;-74
2022/06/21 12:39:08;;;;;;;2.23;1.50;;;;;;;26.85;32.87;96220.34;5030922;28;21081;-74